sensor_id;sensor_type;location;lat;lon;timestamp;P1;durP1;ratioP1;P2;durP2;ratioP2
15633;SDS011;14654;48.898;8.308;2023-07-20T00:02:05;2.40;;;2.20;;
15633;SDS011;14654;48.898;8.308;2023-07-20T00:04:32;2.83;;;2.20;;
15633;SDS011;14654;48.898;8.308;2023-07-20T00:06:58;2.50;;;2.30;;
15633;SDS011;14654;48.898;8.308;2023-07-20T00:09:25;2.13;;;2.03;;
15633;SDS011;14654;48.898;8.308;2023-07-20T00:11:51;2.80;;;2.60;;
15633;SDS011;14654;48.898;8.308;2023-07-20T00:14:17;2.90;;;2.27;;
15633;SDS011;14654;48.898;8.308;2023-07-20T00:16:45;2.33;;;2.13;;
15633;SDS011;14654;48.898;8.308;2023-07-20T00:19:20;2.53;;;2.20;;
15633;SDS011;14654;48.898;8.308;2023-07-20T00:21:49;2.50;;;2.30;;
15633;SDS011;14654;48.898;8.308;2023-07-20T00:24:14;2.63;;;2.43;;
15633;SDS011;14654;48.898;8.308;2023-07-20T00:26:40;2.13;;;2.00;;
15633;SDS011;14654;48.898;8.308;2023-07-20T00:29:05;2.43;;;2.23;;
15633;SDS011;14654;48.898;8.308;2023-07-20T00:31:30;2.70;;;2.40;;
15633;SDS011;14654;48.898;8.308;2023-07-20T00:33:56;2.60;;;2.40;;
15633;SDS011;14654;48.898;8.308;2023-07-20T00:36:21;2.50;;;2.30;;
15633;SDS011;14654;48.898;8.308;2023-07-20T00:38:46;2.23;;;2.03;;
15633;SDS011;14654;48.898;8.308;2023-07-20T00:41:12;1.97;;;1.87;;
15633;SDS011;14654;48.898;8.308;2023-07-20T00:43:38;2.03;;;1.83;;
15633;SDS011;14654;48.898;8.308;2023-07-20T00:46:03;3.37;;;2.10;;
15633;SDS011;14654;48.898;8.308;2023-07-20T00:48:30;5.40;;;2.20;;
15633;SDS011;14654;48.898;8.308;2023-07-20T00:50:56;2.37;;;2.17;;
15633;SDS011;14654;48.898;8.308;2023-07-20T00:53:24;2.53;;;2.30;;
15633;SDS011;14654;48.898;8.308;2023-07-20T00:55:50;2.87;;;2.67;;
15633;SDS011;14654;48.898;8.308;2023-07-20T00:58:15;3.23;;;2.70;;
15633;SDS011;14654;48.898;8.308;2023-07-20T01:00:40;5.73;;;2.40;;
15633;SDS011;14654;48.898;8.308;2023-07-20T01:03:06;2.60;;;2.40;;
15633;SDS011;14654;48.898;8.308;2023-07-20T01:05:34;3.60;;;2.50;;
15633;SDS011;14654;48.898;8.308;2023-07-20T01:08:07;3.77;;;2.50;;
15633;SDS011;14654;48.898;8.308;2023-07-20T01:10:44;3.07;;;2.73;;
15633;SDS011;14654;48.898;8.308;2023-07-20T01:13:16;3.77;;;2.87;;
15633;SDS011;14654;48.898;8.308;2023-07-20T01:15:48;3.47;;;2.87;;
15633;SDS011;14654;48.898;8.308;2023-07-20T01:18:14;3.20;;;2.93;;
15633;SDS011;14654;48.898;8.308;2023-07-20T01:20:39;3.13;;;2.40;;
15633;SDS011;14654;48.898;8.308;2023-07-20T01:23:20;2.77;;;2.43;;
15633;SDS011;14654;48.898;8.308;2023-07-20T01:33:50;2.97;;;2.67;;
15633;SDS011;14654;48.898;8.308;2023-07-20T01:36:18;2.83;;;2.57;;
15633;SDS011;14654;48.898;8.308;2023-07-20T01:38:45;2.57;;;2.30;;
15633;SDS011;14654;48.898;8.308;2023-07-20T01:41:11;2.40;;;2.20;;
15633;SDS011;14654;48.898;8.308;2023-07-20T01:43:36;3.47;;;2.40;;
15633;SDS011;14654;48.898;8.308;2023-07-20T01:46:02;3.13;;;2.60;;
15633;SDS011;14654;48.898;8.308;2023-07-20T01:48:27;2.13;;;2.00;;
15633;SDS011;14654;48.898;8.308;2023-07-20T01:50:53;3.20;;;2.10;;
15633;SDS011;14654;48.898;8.308;2023-07-20T01:53:18;3.77;;;2.60;;
15633;SDS011;14654;48.898;8.308;2023-07-20T01:55:44;2.57;;;2.37;;
15633;SDS011;14654;48.898;8.308;2023-07-20T01:58:10;2.60;;;2.40;;
15633;SDS011;14654;48.898;8.308;2023-07-20T02:00:36;3.70;;;2.27;;
15633;SDS011;14654;48.898;8.308;2023-07-20T02:03:02;3.20;;;2.47;;
15633;SDS011;14654;48.898;8.308;2023-07-20T02:05:27;2.30;;;2.10;;
15633;SDS011;14654;48.898;8.308;2023-07-20T02:07:53;3.30;;;2.43;;
15633;SDS011;14654;48.898;8.308;2023-07-20T02:10:18;2.53;;;2.33;;
15633;SDS011;14654;48.898;8.308;2023-07-20T02:12:43;3.27;;;2.50;;
15633;SDS011;14654;48.898;8.308;2023-07-20T02:15:09;2.53;;;2.33;;
15633;SDS011;14654;48.898;8.308;2023-07-20T02:17:34;3.27;;;2.23;;
15633;SDS011;14654;48.898;8.308;2023-07-20T02:20:00;3.13;;;2.60;;
15633;SDS011;14654;48.898;8.308;2023-07-20T02:22:25;2.63;;;2.30;;
15633;SDS011;14654;48.898;8.308;2023-07-20T02:24:50;2.53;;;2.33;;
15633;SDS011;14654;48.898;8.308;2023-07-20T02:27:16;2.63;;;2.43;;
15633;SDS011;14654;48.898;8.308;2023-07-20T02:29:41;2.40;;;2.20;;
15633;SDS011;14654;48.898;8.308;2023-07-20T02:32:07;3.17;;;2.40;;
15633;SDS011;14654;48.898;8.308;2023-07-20T02:34:34;2.53;;;2.33;;
15633;SDS011;14654;48.898;8.308;2023-07-20T02:37:00;2.67;;;2.40;;
15633;SDS011;14654;48.898;8.308;2023-07-20T02:39:26;3.30;;;2.30;;
15633;SDS011;14654;48.898;8.308;2023-07-20T02:41:52;2.53;;;2.33;;
15633;SDS011;14654;48.898;8.308;2023-07-20T02:44:17;2.27;;;1.97;;
15633;SDS011;14654;48.898;8.308;2023-07-20T02:46:43;2.10;;;2.00;;
15633;SDS011;14654;48.898;8.308;2023-07-20T02:49:08;2.70;;;2.50;;
15633;SDS011;14654;48.898;8.308;2023-07-20T02:51:33;2.53;;;2.33;;
15633;SDS011;14654;48.898;8.308;2023-07-20T02:53:59;2.50;;;2.30;;
15633;SDS011;14654;48.898;8.308;2023-07-20T02:56:24;2.37;;;2.17;;
15633;SDS011;14654;48.898;8.308;2023-07-20T02:58:50;2.73;;;2.53;;
15633;SDS011;14654;48.898;8.308;2023-07-20T03:01:17;2.27;;;2.07;;
15633;SDS011;14654;48.898;8.308;2023-07-20T03:03:42;2.43;;;2.23;;
15633;SDS011;14654;48.898;8.308;2023-07-20T03:06:10;2.60;;;2.40;;
15633;SDS011;14654;48.898;8.308;2023-07-20T03:08:36;2.57;;;2.37;;
15633;SDS011;14654;48.898;8.308;2023-07-20T03:11:01;2.40;;;2.20;;
15633;SDS011;14654;48.898;8.308;2023-07-20T03:13:26;2.60;;;2.40;;
15633;SDS011;14654;48.898;8.308;2023-07-20T03:15:52;2.43;;;2.23;;
15633;SDS011;14654;48.898;8.308;2023-07-20T03:18:18;2.57;;;2.10;;
15633;SDS011;14654;48.898;8.308;2023-07-20T03:20:43;2.63;;;2.43;;
15633;SDS011;14654;48.898;8.308;2023-07-20T03:23:09;2.30;;;2.10;;
15633;SDS011;14654;48.898;8.308;2023-07-20T03:25:35;2.10;;;2.00;;
15633;SDS011;14654;48.898;8.308;2023-07-20T03:28:02;3.00;;;2.30;;
15633;SDS011;14654;48.898;8.308;2023-07-20T03:30:27;1.83;;;1.73;;
15633;SDS011;14654;48.898;8.308;2023-07-20T03:32:53;2.50;;;2.30;;
15633;SDS011;14654;48.898;8.308;2023-07-20T03:35:18;3.07;;;2.43;;
15633;SDS011;14654;48.898;8.308;2023-07-20T03:37:43;2.23;;;2.03;;
15633;SDS011;14654;48.898;8.308;2023-07-20T03:40:09;2.30;;;2.10;;
15633;SDS011;14654;48.898;8.308;2023-07-20T03:42:35;2.50;;;2.30;;
15633;SDS011;14654;48.898;8.308;2023-07-20T03:45:01;2.33;;;2.13;;
15633;SDS011;14654;48.898;8.308;2023-07-20T03:47:27;2.90;;;2.20;;
15633;SDS011;14654;48.898;8.308;2023-07-20T03:49:53;3.50;;;2.57;;
15633;SDS011;14654;48.898;8.308;2023-07-20T03:52:18;2.60;;;2.40;;
15633;SDS011;14654;48.898;8.308;2023-07-20T03:54:43;2.97;;;2.37;;
15633;SDS011;14654;48.898;8.308;2023-07-20T03:57:09;2.47;;;2.27;;
15633;SDS011;14654;48.898;8.308;2023-07-20T03:59:34;2.37;;;2.17;;
15633;SDS011;14654;48.898;8.308;2023-07-20T04:02:00;2.90;;;2.50;;
15633;SDS011;14654;48.898;8.308;2023-07-20T04:04:25;2.47;;;2.23;;
15633;SDS011;14654;48.898;8.308;2023-07-20T04:06:50;2.50;;;2.30;;
15633;SDS011;14654;48.898;8.308;2023-07-20T04:09:15;2.63;;;2.43;;
15633;SDS011;14654;48.898;8.308;2023-07-20T04:11:41;2.63;;;2.30;;
15633;SDS011;14654;48.898;8.308;2023-07-20T04:14:06;2.50;;;2.30;;
15633;SDS011;14654;48.898;8.308;2023-07-20T04:16:31;2.93;;;2.73;;
15633;SDS011;14654;48.898;8.308;2023-07-20T04:18:58;2.67;;;2.30;;
15633;SDS011;14654;48.898;8.308;2023-07-20T04:21:25;2.83;;;2.50;;
15633;SDS011;14654;48.898;8.308;2023-07-20T04:23:52;2.90;;;2.60;;
15633;SDS011;14654;48.898;8.308;2023-07-20T04:26:17;2.60;;;2.40;;
15633;SDS011;14654;48.898;8.308;2023-07-20T04:28:43;3.07;;;2.57;;
15633;SDS011;14654;48.898;8.308;2023-07-20T04:31:12;2.80;;;2.60;;
15633;SDS011;14654;48.898;8.308;2023-07-20T04:33:38;4.20;;;2.63;;
15633;SDS011;14654;48.898;8.308;2023-07-20T04:36:04;3.30;;;2.53;;
15633;SDS011;14654;48.898;8.308;2023-07-20T04:38:29;2.80;;;2.40;;
15633;SDS011;14654;48.898;8.308;2023-07-20T04:40:55;3.10;;;2.80;;
15633;SDS011;14654;48.898;8.308;2023-07-20T04:43:20;3.43;;;2.23;;
15633;SDS011;14654;48.898;8.308;2023-07-20T04:45:46;2.80;;;2.60;;
15633;SDS011;14654;48.898;8.308;2023-07-20T04:48:12;3.20;;;2.57;;
15633;SDS011;14654;48.898;8.308;2023-07-20T04:50:42;2.90;;;2.40;;
15633;SDS011;14654;48.898;8.308;2023-07-20T04:53:13;3.63;;;2.30;;
15633;SDS011;14654;48.898;8.308;2023-07-20T04:55:39;3.73;;;2.47;;
15633;SDS011;14654;48.898;8.308;2023-07-20T04:58:05;4.30;;;2.80;;
15633;SDS011;14654;48.898;8.308;2023-07-20T05:00:32;2.97;;;2.63;;
15633;SDS011;14654;48.898;8.308;2023-07-20T05:02:58;7.27;;;2.83;;
15633;SDS011;14654;48.898;8.308;2023-07-20T05:05:23;6.47;;;2.77;;
15633;SDS011;14654;48.898;8.308;2023-07-20T05:07:49;5.00;;;2.90;;
15633;SDS011;14654;48.898;8.308;2023-07-20T05:10:14;2.57;;;2.20;;
15633;SDS011;14654;48.898;8.308;2023-07-20T05:12:39;3.60;;;2.70;;
15633;SDS011;14654;48.898;8.308;2023-07-20T05:15:05;3.10;;;2.80;;
15633;SDS011;14654;48.898;8.308;2023-07-20T05:17:31;3.77;;;2.70;;
15633;SDS011;14654;48.898;8.308;2023-07-20T05:19:56;3.03;;;2.70;;
15633;SDS011;14654;48.898;8.308;2023-07-20T05:22:21;3.77;;;2.43;;
15633;SDS011;14654;48.898;8.308;2023-07-20T05:24:47;2.87;;;2.10;;
15633;SDS011;14654;48.898;8.308;2023-07-20T05:27:12;2.40;;;2.03;;
15633;SDS011;14654;48.898;8.308;2023-07-20T05:29:37;3.43;;;2.13;;
15633;SDS011;14654;48.898;8.308;2023-07-20T05:32:03;3.57;;;2.17;;
15633;SDS011;14654;48.898;8.308;2023-07-20T05:34:28;2.60;;;2.00;;
15633;SDS011;14654;48.898;8.308;2023-07-20T05:36:54;2.67;;;2.23;;
15633;SDS011;14654;48.898;8.308;2023-07-20T05:39:20;2.90;;;2.30;;
15633;SDS011;14654;48.898;8.308;2023-07-20T05:41:45;3.03;;;2.37;;
15633;SDS011;14654;48.898;8.308;2023-07-20T05:44:10;3.70;;;2.67;;
15633;SDS011;14654;48.898;8.308;2023-07-20T05:46:36;2.37;;;2.17;;
15633;SDS011;14654;48.898;8.308;2023-07-20T05:49:01;3.50;;;2.60;;
15633;SDS011;14654;48.898;8.308;2023-07-20T05:51:26;2.47;;;2.27;;
15633;SDS011;14654;48.898;8.308;2023-07-20T05:53:52;2.77;;;2.30;;
15633;SDS011;14654;48.898;8.308;2023-07-20T05:56:17;2.93;;;2.20;;
15633;SDS011;14654;48.898;8.308;2023-07-20T05:58:43;5.60;;;2.50;;
15633;SDS011;14654;48.898;8.308;2023-07-20T06:01:08;3.73;;;2.17;;
15633;SDS011;14654;48.898;8.308;2023-07-20T06:03:34;2.57;;;2.37;;
15633;SDS011;14654;48.898;8.308;2023-07-20T06:06:00;4.23;;;2.60;;
15633;SDS011;14654;48.898;8.308;2023-07-20T06:08:27;4.97;;;2.13;;
15633;SDS011;14654;48.898;8.308;2023-07-20T06:10:53;5.53;;;2.50;;
15633;SDS011;14654;48.898;8.308;2023-07-20T06:13:19;4.13;;;2.42;;
15633;SDS011;14654;48.898;8.308;2023-07-20T06:15:44;2.45;;;2.25;;
15633;SDS011;14654;48.898;8.308;2023-07-20T06:18:09;6.60;;;2.83;;
15633;SDS011;14654;48.898;8.308;2023-07-20T06:20:35;3.38;;;2.47;;
15633;SDS011;14654;48.898;8.308;2023-07-20T06:23:00;3.17;;;1.98;;
15633;SDS011;14654;48.898;8.308;2023-07-20T06:25:26;2.78;;;2.20;;
15633;SDS011;14654;48.898;8.308;2023-07-20T06:27:51;11.87;;;3.40;;
15633;SDS011;14654;48.898;8.308;2023-07-20T06:30:16;4.03;;;2.63;;
15633;SDS011;14654;48.898;8.308;2023-07-20T06:32:42;2.63;;;2.03;;
15633;SDS011;14654;48.898;8.308;2023-07-20T06:35:08;2.87;;;2.20;;
15633;SDS011;14654;48.898;8.308;2023-07-20T06:37:34;3.70;;;2.70;;
15633;SDS011;14654;48.898;8.308;2023-07-20T06:40:02;6.17;;;2.90;;
15633;SDS011;14654;48.898;8.308;2023-07-20T06:42:28;3.47;;;2.50;;
15633;SDS011;14654;48.898;8.308;2023-07-20T06:44:54;3.67;;;2.53;;
15633;SDS011;14654;48.898;8.308;2023-07-20T06:47:19;2.63;;;2.10;;
15633;SDS011;14654;48.898;8.308;2023-07-20T06:49:45;2.63;;;2.17;;
15633;SDS011;14654;48.898;8.308;2023-07-20T06:52:10;2.67;;;2.00;;
15633;SDS011;14654;48.898;8.308;2023-07-20T06:54:36;3.93;;;2.10;;
15633;SDS011;14654;48.898;8.308;2023-07-20T06:57:01;3.53;;;2.37;;
15633;SDS011;14654;48.898;8.308;2023-07-20T06:59:27;6.20;;;3.20;;
15633;SDS011;14654;48.898;8.308;2023-07-20T07:01:52;3.73;;;2.67;;
15633;SDS011;14654;48.898;8.308;2023-07-20T07:04:17;3.97;;;2.50;;
15633;SDS011;14654;48.898;8.308;2023-07-20T07:06:42;3.17;;;2.17;;
15633;SDS011;14654;48.898;8.308;2023-07-20T07:09:08;3.00;;;2.50;;
15633;SDS011;14654;48.898;8.308;2023-07-20T07:11:33;3.10;;;2.30;;
15633;SDS011;14654;48.898;8.308;2023-07-20T07:13:59;3.40;;;2.00;;
15633;SDS011;14654;48.898;8.308;2023-07-20T07:16:24;2.23;;;2.03;;
15633;SDS011;14654;48.898;8.308;2023-07-20T07:18:50;4.00;;;2.13;;
15633;SDS011;14654;48.898;8.308;2023-07-20T07:21:16;2.67;;;2.00;;
15633;SDS011;14654;48.898;8.308;2023-07-20T07:23:41;4.57;;;2.17;;
15633;SDS011;14654;48.898;8.308;2023-07-20T07:26:08;3.40;;;2.30;;
15633;SDS011;14654;48.898;8.308;2023-07-20T07:28:34;3.23;;;2.17;;
15633;SDS011;14654;48.898;8.308;2023-07-20T07:30:59;2.28;;;2.05;;
15633;SDS011;14654;48.898;8.308;2023-07-20T07:33:25;4.78;;;2.45;;
15633;SDS011;14654;48.898;8.308;2023-07-20T07:35:51;2.45;;;1.70;;
15633;SDS011;14654;48.898;8.308;2023-07-20T07:38:19;3.55;;;2.20;;
15633;SDS011;14654;48.898;8.308;2023-07-20T07:40:45;3.00;;;1.85;;
15633;SDS011;14654;48.898;8.308;2023-07-20T07:43:11;5.53;;;2.35;;
15633;SDS011;14654;48.898;8.308;2023-07-20T07:45:37;5.18;;;2.13;;
15633;SDS011;14654;48.898;8.308;2023-07-20T07:48:02;2.40;;;1.85;;
15633;SDS011;14654;48.898;8.308;2023-07-20T07:50:29;3.15;;;2.17;;
15633;SDS011;14654;48.898;8.308;2023-07-20T07:52:54;2.47;;;1.88;;
15633;SDS011;14654;48.898;8.308;2023-07-20T07:55:20;3.95;;;2.40;;
15633;SDS011;14654;48.898;8.308;2023-07-20T07:57:45;2.13;;;1.90;;
15633;SDS011;14654;48.898;8.308;2023-07-20T08:00:12;4.28;;;2.00;;
15633;SDS011;14654;48.898;8.308;2023-07-20T08:02:40;2.28;;;2.00;;
15633;SDS011;14654;48.898;8.308;2023-07-20T08:05:07;3.78;;;2.35;;
15633;SDS011;14654;48.898;8.308;2023-07-20T08:07:32;3.33;;;2.42;;
15633;SDS011;14654;48.898;8.308;2023-07-20T08:09:58;3.30;;;2.17;;
15633;SDS011;14654;48.898;8.308;2023-07-20T08:12:24;5.03;;;2.08;;
15633;SDS011;14654;48.898;8.308;2023-07-20T08:14:49;3.30;;;2.22;;
15633;SDS011;14654;48.898;8.308;2023-07-20T08:17:15;1.80;;;1.70;;
15633;SDS011;14654;48.898;8.308;2023-07-20T08:19:40;2.65;;;1.90;;
15633;SDS011;14654;48.898;8.308;2023-07-20T08:22:07;2.10;;;1.90;;
15633;SDS011;14654;48.898;8.308;2023-07-20T08:24:32;3.58;;;1.73;;
15633;SDS011;14654;48.898;8.308;2023-07-20T08:26:58;3.17;;;2.10;;
15633;SDS011;14654;48.898;8.308;2023-07-20T08:29:24;2.22;;;1.70;;
15633;SDS011;14654;48.898;8.308;2023-07-20T08:31:49;2.85;;;1.90;;
15633;SDS011;14654;48.898;8.308;2023-07-20T08:34:14;2.55;;;1.80;;
15633;SDS011;14654;48.898;8.308;2023-07-20T08:36:40;3.33;;;2.03;;
15633;SDS011;14654;48.898;8.308;2023-07-20T08:39:05;3.15;;;1.70;;
15633;SDS011;14654;48.898;8.308;2023-07-20T08:41:33;3.15;;;2.50;;
15633;SDS011;14654;48.898;8.308;2023-07-20T08:43:59;5.72;;;2.30;;
15633;SDS011;14654;48.898;8.308;2023-07-20T08:46:26;4.82;;;2.03;;
15633;SDS011;14654;48.898;8.308;2023-07-20T08:48:53;3.33;;;1.90;;
15633;SDS011;14654;48.898;8.308;2023-07-20T08:51:20;2.90;;;1.80;;
15633;SDS011;14654;48.898;8.308;2023-07-20T08:53:46;2.83;;;1.80;;
15633;SDS011;14654;48.898;8.308;2023-07-20T08:56:14;2.35;;;2.00;;
15633;SDS011;14654;48.898;8.308;2023-07-20T08:58:41;3.00;;;2.10;;
15633;SDS011;14654;48.898;8.308;2023-07-20T09:01:08;4.32;;;1.50;;
15633;SDS011;14654;48.898;8.308;2023-07-20T09:03:35;1.77;;;1.67;;
15633;SDS011;14654;48.898;8.308;2023-07-20T09:06:04;2.75;;;2.05;;
15633;SDS011;14654;48.898;8.308;2023-07-20T09:08:30;3.05;;;1.80;;
15633;SDS011;14654;48.898;8.308;2023-07-20T09:10:56;3.07;;;2.00;;
15633;SDS011;14654;48.898;8.308;2023-07-20T09:13:21;2.77;;;2.00;;
15633;SDS011;14654;48.898;8.308;2023-07-20T09:15:47;2.10;;;1.70;;
15633;SDS011;14654;48.898;8.308;2023-07-20T09:18:25;2.77;;;2.10;;
15633;SDS011;14654;48.898;8.308;2023-07-20T09:20:52;1.90;;;1.57;;
15633;SDS011;14654;48.898;8.308;2023-07-20T09:23:19;4.03;;;2.30;;
15633;SDS011;14654;48.898;8.308;2023-07-20T09:25:44;2.40;;;1.93;;
15633;SDS011;14654;48.898;8.308;2023-07-20T09:28:11;2.37;;;1.70;;
15633;SDS011;14654;48.898;8.308;2023-07-20T09:30:37;3.10;;;2.00;;
15633;SDS011;14654;48.898;8.308;2023-07-20T09:33:02;3.03;;;1.90;;
15633;SDS011;14654;48.898;8.308;2023-07-20T09:35:27;2.30;;;1.77;;
15633;SDS011;14654;48.898;8.308;2023-07-20T09:38:00;4.47;;;2.27;;
15633;SDS011;14654;48.898;8.308;2023-07-20T09:40:26;3.53;;;1.60;;
15633;SDS011;14654;48.898;8.308;2023-07-20T09:42:52;4.00;;;1.87;;
15633;SDS011;14654;48.898;8.308;2023-07-20T09:45:29;2.20;;;2.00;;
15633;SDS011;14654;48.898;8.308;2023-07-20T09:48:02;1.57;;;1.47;;
15633;SDS011;14654;48.898;8.308;2023-07-20T09:50:29;2.70;;;1.70;;
15633;SDS011;14654;48.898;8.308;2023-07-20T09:52:55;2.23;;;1.63;;
15633;SDS011;14654;48.898;8.308;2023-07-20T09:55:21;1.83;;;1.53;;
15633;SDS011;14654;48.898;8.308;2023-07-20T09:57:49;2.80;;;1.90;;
15633;SDS011;14654;48.898;8.308;2023-07-20T10:00:14;3.17;;;1.93;;
15633;SDS011;14654;48.898;8.308;2023-07-20T10:02:42;9.07;;;2.73;;
15633;SDS011;14654;48.898;8.308;2023-07-20T10:05:08;3.13;;;1.90;;
15633;SDS011;14654;48.898;8.308;2023-07-20T10:07:38;1.93;;;1.60;;
15633;SDS011;14654;48.898;8.308;2023-07-20T10:10:08;2.03;;;1.63;;
15633;SDS011;14654;48.898;8.308;2023-07-20T10:12:36;1.67;;;1.30;;
15633;SDS011;14654;48.898;8.308;2023-07-20T10:18:09;4.07;;;2.27;;
15633;SDS011;14654;48.898;8.308;2023-07-20T10:20:56;2.07;;;1.80;;
15633;SDS011;14654;48.898;8.308;2023-07-20T10:23:24;3.20;;;1.63;;
15633;SDS011;14654;48.898;8.308;2023-07-20T10:25:51;2.07;;;1.50;;
15633;SDS011;14654;48.898;8.308;2023-07-20T10:28:18;2.13;;;1.73;;
15633;SDS011;14654;48.898;8.308;2023-07-20T10:30:43;2.00;;;1.80;;
15633;SDS011;14654;48.898;8.308;2023-07-20T10:33:09;2.43;;;1.80;;
15633;SDS011;14654;48.898;8.308;2023-07-20T10:35:51;2.50;;;1.70;;
15633;SDS011;14654;48.898;8.308;2023-07-20T10:38:37;2.97;;;1.60;;
15633;SDS011;14654;48.898;8.308;2023-07-20T10:41:03;2.20;;;1.80;;
15633;SDS011;14654;48.898;8.308;2023-07-20T10:43:28;1.77;;;1.60;;
15633;SDS011;14654;48.898;8.308;2023-07-20T10:45:55;1.80;;;1.50;;
15633;SDS011;14654;48.898;8.308;2023-07-20T10:48:21;1.33;;;1.20;;
15633;SDS011;14654;48.898;8.308;2023-07-20T10:51:08;1.50;;;1.40;;
15633;SDS011;14654;48.898;8.308;2023-07-20T10:53:36;1.80;;;1.70;;
15633;SDS011;14654;48.898;8.308;2023-07-20T10:56:08;2.07;;;1.50;;
15633;SDS011;14654;48.898;8.308;2023-07-20T10:58:38;3.10;;;1.60;;
15633;SDS011;14654;48.898;8.308;2023-07-20T11:01:05;2.77;;;1.60;;
15633;SDS011;14654;48.898;8.308;2023-07-20T11:03:36;2.37;;;1.50;;
15633;SDS011;14654;48.898;8.308;2023-07-20T11:08:50;1.60;;;1.50;;
15633;SDS011;14654;48.898;8.308;2023-07-20T11:11:41;1.47;;;1.27;;
15633;SDS011;14654;48.898;8.308;2023-07-20T11:14:10;1.47;;;1.37;;
15633;SDS011;14654;48.898;8.308;2023-07-20T11:16:46;1.33;;;1.23;;
15633;SDS011;14654;48.898;8.308;2023-07-20T11:19:13;1.90;;;1.13;;
15633;SDS011;14654;48.898;8.308;2023-07-20T11:21:58;2.53;;;1.50;;
15633;SDS011;14654;48.898;8.308;2023-07-20T11:24:23;1.47;;;1.37;;
15633;SDS011;14654;48.898;8.308;2023-07-20T11:26:52;1.83;;;1.40;;
15633;SDS011;14654;48.898;8.308;2023-07-20T11:29:19;2.47;;;1.87;;
15633;SDS011;14654;48.898;8.308;2023-07-20T11:31:46;1.47;;;1.33;;
15633;SDS011;14654;48.898;8.308;2023-07-20T11:34:13;1.40;;;1.10;;
15633;SDS011;14654;48.898;8.308;2023-07-20T11:36:46;1.20;;;1.10;;
15633;SDS011;14654;48.898;8.308;2023-07-20T11:39:14;1.67;;;1.20;;
15633;SDS011;14654;48.898;8.308;2023-07-20T11:41:47;1.67;;;1.23;;
15633;SDS011;14654;48.898;8.308;2023-07-20T11:44:13;1.50;;;1.40;;
15633;SDS011;14654;48.898;8.308;2023-07-20T11:46:40;2.60;;;1.20;;
15633;SDS011;14654;48.898;8.308;2023-07-20T11:49:07;2.03;;;1.27;;
15633;SDS011;14654;48.898;8.308;2023-07-20T11:51:33;2.07;;;1.53;;
15633;SDS011;14654;48.898;8.308;2023-07-20T11:54:00;2.33;;;1.40;;
15633;SDS011;14654;48.898;8.308;2023-07-20T11:56:27;1.40;;;1.30;;
15633;SDS011;14654;48.898;8.308;2023-07-20T11:58:59;1.20;;;1.10;;
15633;SDS011;14654;48.898;8.308;2023-07-20T12:01:27;1.27;;;1.10;;
15633;SDS011;14654;48.898;8.308;2023-07-20T12:03:57;1.87;;;1.23;;
15633;SDS011;14654;48.898;8.308;2023-07-20T12:06:24;2.03;;;1.00;;
15633;SDS011;14654;48.898;8.308;2023-07-20T12:08:50;1.37;;;1.27;;
15633;SDS011;14654;48.898;8.308;2023-07-20T12:11:37;1.30;;;1.13;;
15633;SDS011;14654;48.898;8.308;2023-07-20T12:14:07;1.00;;;0.90;;
15633;SDS011;14654;48.898;8.308;2023-07-20T12:16:34;1.33;;;1.13;;
15633;SDS011;14654;48.898;8.308;2023-07-20T12:19:11;1.20;;;1.10;;
15633;SDS011;14654;48.898;8.308;2023-07-20T12:21:38;1.43;;;1.07;;
15633;SDS011;14654;48.898;8.308;2023-07-20T12:24:06;1.30;;;1.20;;
15633;SDS011;14654;48.898;8.308;2023-07-20T12:26:32;1.20;;;1.10;;
15633;SDS011;14654;48.898;8.308;2023-07-20T12:28:59;1.10;;;0.90;;
15633;SDS011;14654;48.898;8.308;2023-07-20T12:31:25;2.00;;;1.20;;
15633;SDS011;14654;48.898;8.308;2023-07-20T12:33:52;1.20;;;1.10;;
15633;SDS011;14654;48.898;8.308;2023-07-20T12:36:20;0.93;;;0.83;;
15633;SDS011;14654;48.898;8.308;2023-07-20T12:38:46;4.13;;;1.30;;
15633;SDS011;14654;48.898;8.308;2023-07-20T12:41:11;2.20;;;1.10;;
15633;SDS011;14654;48.898;8.308;2023-07-20T12:43:38;1.10;;;1.07;;
15633;SDS011;14654;48.898;8.308;2023-07-20T12:46:05;1.47;;;1.03;;
15633;SDS011;14654;48.898;8.308;2023-07-20T12:48:30;1.13;;;1.00;;
15633;SDS011;14654;48.898;8.308;2023-07-20T12:50:56;1.33;;;1.00;;
15633;SDS011;14654;48.898;8.308;2023-07-20T12:53:21;1.37;;;1.23;;
15633;SDS011;14654;48.898;8.308;2023-07-20T12:55:47;1.23;;;1.10;;
15633;SDS011;14654;48.898;8.308;2023-07-20T12:58:12;1.73;;;1.27;;
15633;SDS011;14654;48.898;8.308;2023-07-20T13:00:38;1.23;;;1.13;;
15633;SDS011;14654;48.898;8.308;2023-07-20T13:03:04;1.30;;;1.13;;
15633;SDS011;14654;48.898;8.308;2023-07-20T13:05:30;1.30;;;1.20;;
15633;SDS011;14654;48.898;8.308;2023-07-20T13:07:56;1.23;;;1.13;;
15633;SDS011;14654;48.898;8.308;2023-07-20T13:10:23;2.23;;;1.30;;
15633;SDS011;14654;48.898;8.308;2023-07-20T13:12:48;1.10;;;1.00;;
15633;SDS011;14654;48.898;8.308;2023-07-20T13:15:13;1.47;;;1.10;;
15633;SDS011;14654;48.898;8.308;2023-07-20T13:17:39;1.00;;;1.00;;
15633;SDS011;14654;48.898;8.308;2023-07-20T13:20:05;1.40;;;1.10;;
15633;SDS011;14654;48.898;8.308;2023-07-20T13:22:31;1.30;;;1.20;;
15633;SDS011;14654;48.898;8.308;2023-07-20T13:24:57;1.67;;;1.20;;
15633;SDS011;14654;48.898;8.308;2023-07-20T13:27:23;2.30;;;1.27;;
15633;SDS011;14654;48.898;8.308;2023-07-20T13:29:50;1.33;;;1.20;;
15633;SDS011;14654;48.898;8.308;2023-07-20T13:32:16;1.20;;;1.00;;
15633;SDS011;14654;48.898;8.308;2023-07-20T13:34:42;1.30;;;1.10;;
15633;SDS011;14654;48.898;8.308;2023-07-20T13:37:08;2.43;;;1.20;;
15633;SDS011;14654;48.898;8.308;2023-07-20T13:39:34;1.50;;;1.17;;
15633;SDS011;14654;48.898;8.308;2023-07-20T13:41:59;1.03;;;1.00;;
15633;SDS011;14654;48.898;8.308;2023-07-20T13:44:27;2.10;;;1.40;;
15633;SDS011;14654;48.898;8.308;2023-07-20T13:46:52;1.10;;;0.93;;
15633;SDS011;14654;48.898;8.308;2023-07-20T13:49:18;1.50;;;1.00;;
15633;SDS011;14654;48.898;8.308;2023-07-20T13:51:43;1.40;;;1.30;;
15633;SDS011;14654;48.898;8.308;2023-07-20T13:54:09;1.53;;;1.20;;
15633;SDS011;14654;48.898;8.308;2023-07-20T13:56:34;1.50;;;1.40;;
15633;SDS011;14654;48.898;8.308;2023-07-20T13:59:00;2.50;;;1.40;;
15633;SDS011;14654;48.898;8.308;2023-07-20T14:01:25;2.00;;;1.10;;
15633;SDS011;14654;48.898;8.308;2023-07-20T14:03:53;1.93;;;1.30;;
15633;SDS011;14654;48.898;8.308;2023-07-20T14:06:19;1.67;;;1.17;;
15633;SDS011;14654;48.898;8.308;2023-07-20T14:08:44;1.50;;;1.30;;
15633;SDS011;14654;48.898;8.308;2023-07-20T14:11:12;2.60;;;1.37;;
15633;SDS011;14654;48.898;8.308;2023-07-20T14:13:37;1.50;;;1.40;;
15633;SDS011;14654;48.898;8.308;2023-07-20T14:16:03;1.30;;;1.20;;
15633;SDS011;14654;48.898;8.308;2023-07-20T14:18:28;1.30;;;1.20;;
15633;SDS011;14654;48.898;8.308;2023-07-20T14:20:54;1.30;;;1.20;;
15633;SDS011;14654;48.898;8.308;2023-07-20T14:23:19;1.57;;;1.17;;
15633;SDS011;14654;48.898;8.308;2023-07-20T14:25:44;2.97;;;1.47;;
15633;SDS011;14654;48.898;8.308;2023-07-20T14:28:09;2.80;;;1.40;;
15633;SDS011;14654;48.898;8.308;2023-07-20T14:30:35;1.57;;;1.30;;
15633;SDS011;14654;48.898;8.308;2023-07-20T14:33:00;3.03;;;1.37;;
15633;SDS011;14654;48.898;8.308;2023-07-20T14:35:26;2.63;;;1.33;;
15633;SDS011;14654;48.898;8.308;2023-07-20T14:37:51;1.20;;;1.10;;
15633;SDS011;14654;48.898;8.308;2023-07-20T14:40:17;1.60;;;1.50;;
15633;SDS011;14654;48.898;8.308;2023-07-20T14:42:43;1.53;;;1.40;;
15633;SDS011;14654;48.898;8.308;2023-07-20T14:45:08;0.90;;;0.90;;
15633;SDS011;14654;48.898;8.308;2023-07-20T14:47:34;1.40;;;1.30;;
15633;SDS011;14654;48.898;8.308;2023-07-20T14:50:00;2.17;;;1.50;;
15633;SDS011;14654;48.898;8.308;2023-07-20T14:52:27;1.97;;;1.30;;
15633;SDS011;14654;48.898;8.308;2023-07-20T14:54:53;2.00;;;1.17;;
15633;SDS011;14654;48.898;8.308;2023-07-20T14:57:19;1.30;;;1.20;;
15633;SDS011;14654;48.898;8.308;2023-07-20T14:59:45;1.30;;;1.13;;